createdAt,value
2023-01-21T00:01:42.995Z,2.04
2023-01-21T00:04:15.478Z,2.06
2023-01-21T00:06:45.960Z,2.09
2023-01-21T00:09:16.024Z,2.09
2023-01-21T00:11:53.294Z,2.08
2023-01-21T00:14:21.365Z,2.12
2023-01-21T00:16:49.530Z,2.19
2023-01-21T00:19:17.708Z,2.23
2023-01-21T00:21:46.894Z,2.26
2023-01-21T00:24:16.632Z,2.27
2023-01-21T00:26:46.573Z,2.26
2023-01-21T00:29:15.381Z,2.17
2023-01-21T00:31:43.634Z,2.09
2023-01-21T00:34:12.920Z,2.00
2023-01-21T00:36:42.277Z,1.95
2023-01-21T00:39:10.502Z,1.93
2023-01-21T00:41:38.567Z,1.91
2023-01-21T00:44:06.670Z,1.86
2023-01-21T00:46:34.785Z,1.81
2023-01-21T00:49:03.457Z,1.76
2023-01-21T00:51:31.541Z,1.69
2023-01-21T00:53:59.685Z,1.66
2023-01-21T00:56:28.618Z,1.63
2023-01-21T00:58:56.807Z,1.57
2023-01-21T01:01:27.046Z,1.51
2023-01-21T01:03:55.179Z,1.45
2023-01-21T01:06:24.510Z,1.40
2023-01-21T01:08:59.149Z,1.37
2023-01-21T01:11:36.163Z,1.35
2023-01-21T01:14:06.023Z,1.34
2023-01-21T01:16:34.374Z,1.32
2023-01-21T01:19:02.893Z,1.31
2023-01-21T01:21:30.954Z,1.29
2023-01-21T01:24:00.727Z,1.26
2023-01-21T01:26:29.977Z,1.23
2023-01-21T01:29:06.559Z,1.20
2023-01-21T01:31:51.701Z,1.18
2023-01-21T01:34:21.568Z,1.18
2023-01-21T01:36:51.401Z,1.17
2023-01-21T01:39:20.579Z,1.15
2023-01-21T01:41:49.292Z,1.14
2023-01-21T01:45:04.702Z,1.13
2023-01-21T01:47:59.984Z,1.10
2023-01-21T01:50:33.519Z,1.07
2023-01-21T01:53:03.607Z,1.08
2023-01-21T01:55:37.079Z,1.11
2023-01-21T01:58:09.073Z,1.12
2023-01-21T02:00:38.303Z,1.12
2023-01-21T02:03:25.403Z,1.12
2023-01-21T02:05:54.429Z,1.11
2023-01-21T02:08:27.153Z,1.15
2023-01-21T02:10:56.761Z,1.20
2023-01-21T02:13:30.138Z,1.22
2023-01-21T02:16:30.864Z,1.22
2023-01-21T02:19:17.425Z,1.24
2023-01-21T02:22:21.630Z,1.29
2023-01-21T02:25:42.275Z,1.34
2023-01-21T02:28:44.445Z,1.36
2023-01-21T02:31:47.577Z,1.37
2023-01-21T02:34:48.953Z,1.39
2023-01-21T02:37:39.357Z,1.39
2023-01-21T02:40:22.082Z,1.38
2023-01-21T02:43:06.602Z,1.38
2023-01-21T02:45:52.101Z,1.34
2023-01-21T02:48:30.330Z,1.33
2023-01-21T02:50:58.498Z,1.31
2023-01-21T02:53:31.519Z,1.30
2023-01-21T02:56:05.960Z,1.31
2023-01-21T02:58:37.437Z,1.33
2023-01-21T03:02:09.711Z,1.35
2023-01-21T03:05:04.429Z,1.38
2023-01-21T03:07:34.118Z,1.41
2023-01-21T03:10:13.730Z,1.42
2023-01-21T03:12:55.682Z,1.43
2023-01-21T03:16:06.595Z,1.42
2023-01-21T03:18:40.595Z,1.44
2023-01-21T03:21:13.308Z,1.47
2023-01-21T03:23:47.464Z,1.50
2023-01-21T03:26:20.040Z,1.54
2023-01-21T03:29:10.859Z,1.54
2023-01-21T03:31:50.079Z,1.53
2023-01-21T03:34:20.396Z,1.51
2023-01-21T03:37:05.066Z,1.47
2023-01-21T03:39:58.171Z,1.43
2023-01-21T03:42:27.888Z,1.39
2023-01-21T03:45:00.785Z,1.37
2023-01-21T03:47:43.753Z,1.35
2023-01-21T03:50:36.013Z,1.29
2023-01-21T03:53:06.723Z,1.23
2023-01-21T03:56:00.074Z,1.19
2023-01-21T03:58:52.734Z,1.14
2023-01-21T04:01:46.437Z,1.09
2023-01-21T04:04:42.864Z,1.05
2023-01-21T04:07:34.949Z,1.04
2023-01-21T04:10:26.717Z,1.00
2023-01-21T04:13:18.776Z,0.98
2023-01-21T04:16:11.089Z,0.96
2023-01-21T04:19:03.294Z,0.94
2023-01-21T04:21:55.473Z,0.93
2023-01-21T04:24:49.611Z,0.90
2023-01-21T04:27:42.044Z,0.89
2023-01-21T04:30:36.674Z,0.88
2023-01-21T04:33:29.584Z,0.87
2023-01-21T04:36:21.897Z,0.87
2023-01-21T04:39:15.292Z,0.86
2023-01-21T04:42:08.202Z,0.81
2023-01-21T04:45:00.172Z,0.80
2023-01-21T04:47:52.380Z,0.77
2023-01-21T04:50:49.627Z,0.72
2023-01-21T04:53:42.411Z,0.71
2023-01-21T04:57:32.544Z,0.73
2023-01-21T05:00:31.153Z,0.75
2023-01-21T05:03:28.942Z,0.80
2023-01-21T05:06:37.380Z,0.85
2023-01-21T05:09:29.714Z,0.90
2023-01-21T05:12:38.528Z,0.92
2023-01-21T05:15:33.797Z,0.93
2023-01-21T05:18:29.698Z,0.93
2023-01-21T05:21:23.395Z,0.95
2023-01-21T05:24:15.878Z,0.96
2023-01-21T05:27:08.581Z,0.96
2023-01-21T05:30:01.383Z,0.98
2023-01-21T05:32:55.392Z,1.00
2023-01-21T05:35:47.787Z,1.03
2023-01-21T05:38:40.049Z,1.05
2023-01-21T05:42:15.177Z,1.04
2023-01-21T05:45:48.965Z,1.00
2023-01-21T05:48:43.646Z,1.02
2023-01-21T05:51:40.215Z,1.05
2023-01-21T05:54:34.546Z,1.05
2023-01-21T05:57:27.291Z,1.04
2023-01-21T06:00:21.902Z,1.00
2023-01-21T06:03:18.091Z,0.99
2023-01-21T06:06:15.320Z,1.04
2023-01-21T06:09:09.669Z,1.10
2023-01-21T06:12:01.940Z,1.10
2023-01-21T06:15:12.574Z,1.10
2023-01-21T06:18:06.168Z,1.14
2023-01-21T06:21:03.143Z,1.15
2023-01-21T06:23:55.445Z,1.18
2023-01-21T06:26:49.082Z,1.19
2023-01-21T06:29:42.371Z,1.19
2023-01-21T06:32:34.922Z,1.13
2023-01-21T06:35:28.284Z,1.09
2023-01-21T06:38:20.848Z,1.09
2023-01-21T06:41:17.848Z,1.08
2023-01-21T06:44:10.898Z,1.07
2023-01-21T06:47:03.193Z,1.05
2023-01-21T06:50:27.233Z,1.03
2023-01-21T06:53:47.208Z,1.01
2023-01-21T06:57:01.554Z,0.97
2023-01-21T07:00:13.233Z,0.94
2023-01-21T07:03:26.986Z,0.90
2023-01-21T07:06:41.313Z,0.91
2023-01-21T07:09:35.982Z,0.86
2023-01-21T07:12:56.086Z,0.81
2023-01-21T07:16:48.225Z,0.77
2023-01-21T07:21:05.686Z,0.77
2023-01-21T07:24:37.132Z,0.79
2023-01-21T07:28:28.717Z,0.79
2023-01-21T07:32:02.815Z,0.82
2023-01-21T07:34:59.026Z,0.87
2023-01-21T07:37:51.192Z,0.93
2023-01-21T07:40:42.962Z,0.99
2023-01-21T07:43:35.329Z,1.07
2023-01-21T07:46:27.472Z,1.13
2023-01-21T07:49:20.092Z,1.18
2023-01-21T07:52:11.983Z,1.27
2023-01-21T07:55:04.736Z,1.37
2023-01-21T07:57:58.557Z,1.47
2023-01-21T08:00:50.895Z,1.57
2023-01-21T08:03:43.265Z,1.67
2023-01-21T08:06:35.341Z,1.78
2023-01-21T08:09:27.113Z,1.91
2023-01-21T08:12:18.933Z,2.00
2023-01-21T08:15:14.088Z,2.06
2023-01-21T08:18:06.261Z,2.11
2023-01-21T08:20:58.829Z,2.18
2023-01-21T08:23:51.129Z,2.24
2023-01-21T08:26:43.037Z,2.21
2023-01-21T08:29:35.064Z,2.23
2023-01-21T08:32:30.823Z,2.27
2023-01-21T08:35:22.919Z,2.30
2023-01-21T08:38:14.612Z,2.35
2023-01-21T08:41:07.017Z,2.40
2023-01-21T08:43:59.049Z,2.36
2023-01-21T08:46:51.025Z,2.35
2023-01-21T08:49:42.879Z,2.38
2023-01-21T08:52:34.686Z,2.42
2023-01-21T08:55:27.336Z,2.38
2023-01-21T08:58:19.025Z,2.33
2023-01-21T09:01:13.840Z,2.28
2023-01-21T09:04:06.915Z,2.27
2023-01-21T09:06:59.302Z,2.27
2023-01-21T09:09:50.910Z,2.28
2023-01-21T09:12:42.842Z,2.23
2023-01-21T09:15:42.846Z,2.17
2023-01-21T09:18:35.880Z,2.17
2023-01-21T09:21:29.455Z,2.20
2023-01-21T09:24:20.833Z,2.21
2023-01-21T09:27:13.093Z,2.28
2023-01-21T09:30:05.764Z,2.37
2023-01-21T09:32:58.039Z,2.44
2023-01-21T09:35:58.383Z,2.52
2023-01-21T09:38:51.250Z,2.57
2023-01-21T09:41:53.545Z,2.56
2023-01-21T09:44:49.270Z,2.51
2023-01-21T09:47:43.571Z,2.46
2023-01-21T09:50:38.643Z,2.42
2023-01-21T09:53:58.577Z,2.40
2023-01-21T09:57:35.376Z,2.36
2023-01-21T10:00:53.279Z,2.33
2023-01-21T10:04:15.263Z,2.34
2023-01-21T10:07:52.102Z,2.38
2023-01-21T10:11:23.554Z,2.42
2023-01-21T10:14:45.972Z,2.47
2023-01-21T10:18:39.955Z,2.53
2023-01-21T10:21:57.944Z,2.58
2023-01-21T10:24:57.432Z,2.60
2023-01-21T10:27:49.361Z,2.63
2023-01-21T10:30:50.294Z,2.67
2023-01-21T10:33:42.874Z,2.74
2023-01-21T10:36:47.931Z,2.80
2023-01-21T10:39:43.296Z,2.88
2023-01-21T10:42:52.479Z,2.92
2023-01-21T10:46:10.940Z,3.16
2023-01-21T10:49:12.290Z,3.52
2023-01-21T10:52:11.726Z,3.68
2023-01-21T10:55:31.517Z,3.76
2023-01-21T10:58:33.228Z,3.81
2023-01-21T11:01:29.936Z,3.78
2023-01-21T11:04:28.343Z,3.73
2023-01-21T11:07:22.453Z,3.72
2023-01-21T11:10:20.925Z,3.70
2023-01-21T11:13:14.234Z,3.66
2023-01-21T11:16:06.965Z,3.61
2023-01-21T11:18:59.779Z,3.58
2023-01-21T11:22:17.905Z,3.59
2023-01-21T11:25:42.528Z,3.56
2023-01-21T11:28:34.528Z,3.55
2023-01-21T11:31:30.015Z,3.54
2023-01-21T11:34:23.698Z,3.52
2023-01-21T11:37:24.546Z,3.53
2023-01-21T11:40:22.770Z,3.53
2023-01-21T11:43:45.775Z,3.56
2023-01-21T11:46:40.005Z,3.53
2023-01-21T11:49:33.229Z,3.50
2023-01-21T11:52:26.009Z,3.46
2023-01-21T11:55:24.647Z,3.45
2023-01-21T11:58:26.714Z,3.51
2023-01-21T12:01:21.603Z,3.56
2023-01-21T12:04:15.603Z,3.58
2023-01-21T12:07:06.966Z,3.58
2023-01-21T12:10:23.509Z,3.55
2023-01-21T12:13:17.808Z,3.53
2023-01-21T12:16:25.267Z,3.51
2023-01-21T12:19:36.186Z,3.56
2023-01-21T12:23:01.587Z,3.65
2023-01-21T12:26:04.943Z,3.76
2023-01-21T12:29:16.235Z,3.84
2023-01-21T12:32:10.670Z,3.94
2023-01-21T12:35:09.307Z,3.89
2023-01-21T12:38:13.963Z,3.75
2023-01-21T12:41:18.798Z,3.62
2023-01-21T12:44:29.479Z,3.49
2023-01-21T12:47:29.812Z,3.38
2023-01-21T12:50:53.724Z,3.27
2023-01-21T12:53:59.082Z,3.18
2023-01-21T12:57:01.551Z,3.11
2023-01-21T13:00:05.931Z,3.01
2023-01-21T13:03:29.248Z,2.93
2023-01-21T13:06:54.273Z,2.89
2023-01-21T13:09:54.969Z,2.84
2023-01-21T13:12:53.820Z,2.83
2023-01-21T13:15:52.778Z,2.84
2023-01-21T13:18:51.708Z,2.87
2023-01-21T13:22:10.163Z,2.95
2023-01-21T13:25:20.487Z,3.08
2023-01-21T13:28:12.109Z,3.18
2023-01-21T13:31:20.148Z,3.31
2023-01-21T13:34:19.666Z,3.45
2023-01-21T13:37:11.524Z,3.56
2023-01-21T13:40:29.114Z,3.64
2023-01-21T13:44:06.146Z,3.68
2023-01-21T13:47:09.992Z,3.70
2023-01-21T13:50:39.910Z,3.74
2023-01-21T13:53:44.557Z,3.78
2023-01-21T13:56:59.240Z,3.78
2023-01-21T14:00:10.515Z,3.74
2023-01-21T14:03:16.922Z,3.67
2023-01-21T14:06:35.547Z,3.61
2023-01-21T14:09:38.319Z,3.55
2023-01-21T14:12:53.195Z,3.49
2023-01-21T14:15:55.818Z,3.43
2023-01-21T14:19:18.697Z,3.35
2023-01-21T14:22:35.042Z,3.28
2023-01-21T14:26:11.171Z,3.22
2023-01-21T14:29:40.724Z,3.18
2023-01-21T14:32:51.308Z,3.12
2023-01-21T14:36:07.942Z,3.08
2023-01-21T14:39:29.453Z,3.05
2023-01-21T14:42:40.906Z,3.01
2023-01-21T14:45:54.002Z,2.99
2023-01-21T14:48:58.465Z,3.02
2023-01-21T14:51:52.262Z,3.03
2023-01-21T14:54:46.442Z,3.05
2023-01-21T14:57:41.493Z,3.06
2023-01-21T15:00:35.965Z,3.05
2023-01-21T15:03:30.648Z,3.05
2023-01-21T15:06:24.287Z,3.04
2023-01-21T15:09:24.856Z,3.03
2023-01-21T15:12:25.422Z,3.04
2023-01-21T15:16:04.088Z,3.03
2023-01-21T15:19:08.917Z,3.05
2023-01-21T15:22:23.118Z,3.03
2023-01-21T15:25:15.805Z,3.02
2023-01-21T15:28:46.066Z,3.02
2023-01-21T15:31:44.336Z,3.08
2023-01-21T15:34:36.772Z,3.11
2023-01-21T15:37:32.480Z,3.09
2023-01-21T15:40:35.372Z,3.11
2023-01-21T15:43:35.546Z,3.11
2023-01-21T15:46:53.675Z,3.13
2023-01-21T15:49:54.331Z,3.12
2023-01-21T15:53:28.702Z,3.13
2023-01-21T15:56:43.174Z,3.12
2023-01-21T16:00:00.123Z,3.12
2023-01-21T16:02:59.173Z,3.06
2023-01-21T16:06:27.639Z,2.94
2023-01-21T16:09:37.907Z,2.81
2023-01-21T16:12:47.470Z,2.74
2023-01-21T16:16:02.478Z,2.69
2023-01-21T16:19:03.376Z,2.60
2023-01-21T16:22:01.273Z,2.55
2023-01-21T16:24:59.429Z,2.51
2023-01-21T16:27:55.357Z,2.50
2023-01-21T16:30:57.445Z,2.51
2023-01-21T16:33:50.523Z,2.51
2023-01-21T16:36:42.798Z,2.49
2023-01-21T16:39:34.731Z,2.48
2023-01-21T16:42:32.144Z,2.46
2023-01-21T16:45:26.039Z,2.45
2023-01-21T16:48:23.067Z,2.43
2023-01-21T16:51:22.192Z,2.42
2023-01-21T16:54:20.716Z,2.39
2023-01-21T16:57:16.908Z,2.36
2023-01-21T17:00:27.284Z,2.34
2023-01-21T17:03:23.234Z,2.32
2023-01-21T17:06:31.239Z,2.30
2023-01-21T17:09:26.156Z,2.30
2023-01-21T17:12:25.516Z,2.32
2023-01-21T17:15:38.575Z,2.34
2023-01-21T17:18:40.504Z,2.36
2023-01-21T17:21:43.243Z,2.36
2023-01-21T17:24:39.467Z,2.35
2023-01-21T17:27:33.409Z,2.33
2023-01-21T17:30:30.385Z,2.29
2023-01-21T17:33:30.732Z,2.25
2023-01-21T17:36:40.529Z,2.21
2023-01-21T17:39:50.791Z,2.18
2023-01-21T17:42:42.622Z,2.15
2023-01-21T17:45:42.796Z,2.12
2023-01-21T17:48:45.278Z,2.10
2023-01-21T17:51:37.839Z,2.09
2023-01-21T17:54:30.016Z,2.05
2023-01-21T17:57:42.931Z,2.02
2023-01-21T18:00:43.349Z,1.98
2023-01-21T18:03:35.605Z,1.96
2023-01-21T18:06:29.185Z,1.95
2023-01-21T18:09:24.469Z,1.96
2023-01-21T18:12:19.507Z,1.96
2023-01-21T18:15:16.296Z,1.94
2023-01-21T18:18:16.707Z,1.93
2023-01-21T18:21:19.062Z,1.92
2023-01-21T18:24:11.536Z,1.92
2023-01-21T18:27:04.080Z,1.94
2023-01-21T18:29:58.142Z,1.93
2023-01-21T18:32:51.003Z,1.95
2023-01-21T18:35:46.174Z,1.97
2023-01-21T18:38:38.747Z,1.98
2023-01-21T18:41:30.535Z,1.97
2023-01-21T18:44:22.780Z,1.98
2023-01-21T18:47:20.657Z,2.00
2023-01-21T18:50:16.418Z,2.03
2023-01-21T18:53:09.305Z,2.06
2023-01-21T18:56:01.576Z,2.10
2023-01-21T18:58:54.212Z,2.13
2023-01-21T19:01:46.766Z,2.17
2023-01-21T19:04:38.818Z,2.18
2023-01-21T19:07:30.675Z,2.16
2023-01-21T19:10:23.051Z,2.11
2023-01-21T19:13:15.593Z,2.04
2023-01-21T19:16:14.746Z,1.95
2023-01-21T19:19:11.585Z,1.86
2023-01-21T19:22:03.670Z,1.77
2023-01-21T19:24:55.656Z,1.68
2023-01-21T19:27:51.413Z,1.62
2023-01-21T19:30:45.339Z,1.57
2023-01-21T19:33:38.247Z,1.54
2023-01-21T19:36:30.799Z,1.52
2023-01-21T19:39:24.221Z,1.51
2023-01-21T19:42:17.989Z,1.49
2023-01-21T19:45:13.308Z,1.51
2023-01-21T19:48:11.568Z,1.50
2023-01-21T19:51:04.150Z,1.49
2023-01-21T19:53:56.351Z,1.45
2023-01-21T19:56:48.477Z,1.42
2023-01-21T19:59:41.886Z,1.39
2023-01-21T20:02:33.554Z,1.36
2023-01-21T20:05:28.152Z,1.33
2023-01-21T20:08:26.485Z,1.31
2023-01-21T20:11:18.670Z,1.31
2023-01-21T20:14:11.397Z,1.30
2023-01-21T20:17:04.691Z,1.29
2023-01-21T20:19:56.938Z,1.28
2023-01-21T20:22:50.818Z,1.27
2023-01-21T20:25:45.478Z,1.26
2023-01-21T20:28:39.981Z,1.26
2023-01-21T20:31:33.606Z,1.27
2023-01-21T20:34:27.774Z,1.27
2023-01-21T20:37:19.780Z,1.25
2023-01-21T20:40:21.568Z,1.26
2023-01-21T20:43:13.881Z,1.28
2023-01-21T20:46:27.479Z,1.29
2023-01-21T20:49:19.884Z,1.29
2023-01-21T20:52:11.728Z,1.29
2023-01-21T20:55:04.158Z,1.31
2023-01-21T20:57:57.052Z,1.36
2023-01-21T21:00:50.485Z,1.41
2023-01-21T21:03:42.646Z,1.46
2023-01-21T21:06:34.994Z,1.52
2023-01-21T21:09:27.615Z,1.57
2023-01-21T21:12:19.810Z,1.57
2023-01-21T21:15:13.115Z,1.60
2023-01-21T21:18:06.129Z,1.66
2023-01-21T21:20:58.630Z,1.71
2023-01-21T21:23:52.774Z,1.73
2023-01-21T21:26:46.053Z,1.78
2023-01-21T21:29:38.775Z,1.84
2023-01-21T21:32:30.975Z,1.87
2023-01-21T21:35:33.094Z,1.90
2023-01-21T21:38:26.233Z,1.92
2023-01-21T21:41:40.357Z,1.95
2023-01-21T21:44:33.442Z,1.97
2023-01-21T21:47:43.940Z,1.92
2023-01-21T21:50:36.444Z,1.93
2023-01-21T21:53:30.478Z,1.94
2023-01-21T21:56:24.033Z,1.95
2023-01-21T21:59:15.837Z,2.00
2023-01-21T22:02:11.555Z,2.02
2023-01-21T22:05:04.503Z,1.97
2023-01-21T22:07:56.596Z,1.94
2023-01-21T22:10:56.478Z,1.88
2023-01-21T22:13:50.752Z,1.78
2023-01-21T22:16:42.605Z,1.71
2023-01-21T22:19:36.297Z,1.65
2023-01-21T22:22:29.712Z,1.59
2023-01-21T22:25:21.804Z,1.55
2023-01-21T22:28:13.883Z,1.48
2023-01-21T22:31:11.168Z,1.44
2023-01-21T22:34:03.884Z,1.38
2023-01-21T22:36:55.867Z,1.33
2023-01-21T22:39:48.669Z,1.29
2023-01-21T22:42:40.664Z,1.24
2023-01-21T22:45:33.052Z,1.18
2023-01-21T22:48:26.967Z,1.14
2023-01-21T22:51:19.760Z,1.08
2023-01-21T22:54:12.018Z,1.02
2023-01-21T22:57:03.653Z,0.97
2023-01-21T22:59:55.883Z,0.92
2023-01-21T23:02:47.711Z,0.89
2023-01-21T23:05:39.726Z,0.88
2023-01-21T23:08:32.108Z,0.86
2023-01-21T23:11:24.874Z,0.84
2023-01-21T23:14:17.499Z,0.82
2023-01-21T23:17:09.762Z,0.79
2023-01-21T23:20:01.709Z,0.77
2023-01-21T23:22:55.735Z,0.75
2023-01-21T23:25:47.445Z,0.73
2023-01-21T23:28:39.806Z,0.71
2023-01-21T23:31:31.782Z,0.69
2023-01-21T23:34:23.462Z,0.70
2023-01-21T23:37:15.695Z,0.71
2023-01-21T23:40:08.495Z,0.72
2023-01-21T23:43:01.022Z,0.76
2023-01-21T23:45:53.629Z,0.82
2023-01-21T23:48:45.842Z,0.91
2023-01-21T23:51:37.882Z,0.99
2023-01-21T23:54:29.854Z,1.09
2023-01-21T23:57:21.741Z,1.24
